Georgetown, Georgia
Current Conditions -  °F | °C
As of 1:58 PM on Monday 20 Oct 2014 (Local Time) from KEUF Reporting Station
Broken Clouds Broken Clouds  
Wind Chill: 74°   Ceiling: 4500
Heat Index: 74°   Visibility: 10mi
Dew Point: 57°   Wind: 3mph
Humidity: 55%   Direction: NA
Pressure: 30.03"   Gusts: NA
Location:  31.88°N, 85.11°W
Report Text: KEUF 201758Z AUTO VRB03KT 10SM SCT036 BKN045 23/14 A3003 RMK AO2 SLP166 T02330139 10250 20083 58024 $
Loading
Personal Weather Stations






























Interactive Weather Map
Tropical Storm Tracking
New forecast layout! Learn more

10-Day Weather Forecast

Advertisements
Track Severe Weather on mobile